Time;durP1;ratioP1;P1;durP2;ratioP2;P2;SDS_P1;SDS_P2;PMS_P1;PMS_P2;Temp;Humidity;BMP_temperature;BMP_pressure;BME280_temperature;BME280_humidity;BME280_pressure;Samples;Min_cycle;Max_cycle;Signal;HPM_P1;HPM_P2
2022/08/29 00:00:56;;;;;;;3.53;1.60;;;16.30;99.90;;;;;;5005191;28;20037;-82
2022/08/29 00:03:22;;;;;;;2.55;1.27;;;16.30;99.90;;;;;;5004415;28;20038;-83
2022/08/29 00:05:48;;;;;;;3.30;1.33;;;16.30;99.90;;;;;;5002972;28;20404;-83
2022/08/29 00:08:13;;;;;;;1.95;1.08;;;16.30;99.90;;;;;;4977176;28;20043;-83
2022/08/29 00:10:40;;;;;;;4.95;1.33;;;16.30;99.90;;;;;;4983171;28;20120;-83
2022/08/29 00:13:09;;;;;;;3.65;1.35;;;16.30;99.90;;;;;;5003244;28;20129;-83
2022/08/29 00:15:36;;;;;;;2.40;1.23;;;16.30;99.90;;;;;;4999965;28;20478;-83
2022/08/29 00:18:03;;;;;;;3.80;1.10;;;16.30;99.90;;;;;;5002163;28;20049;-83
2022/08/29 00:20:31;;;;;;;2.17;1.05;;;16.30;99.90;;;;;;4990274;28;20511;-83
2022/08/29 00:22:57;;;;;;;4.18;1.52;;;16.40;99.90;;;;;;4982945;28;20374;-83
2022/08/29 00:25:23;;;;;;;2.30;1.23;;;16.40;99.90;;;;;;4998597;28;20050;-83
2022/08/29 00:27:49;;;;;;;3.63;1.40;;;16.30;99.90;;;;;;5006845;28;20045;-83
2022/08/29 00:30:17;;;;;;;3.42;1.40;;;16.30;99.90;;;;;;4995077;28;20038;-83
2022/08/29 00:32:43;;;;;;;1.88;1.13;;;16.30;99.90;;;;;;4999832;28;20034;-82
2022/08/29 00:35:13;;;;;;;3.55;1.52;;;16.30;99.90;;;;;;5000226;28;20081;-80
2022/08/29 00:37:40;;;;;;;1.92;1.00;;;16.30;99.90;;;;;;5002064;28;20109;-80
2022/08/29 00:40:09;;;;;;;3.22;1.50;;;16.30;99.90;;;;;;4997332;28;20053;-80
2022/08/29 00:42:35;;;;;;;3.67;1.45;;;16.30;99.90;;;;;;5001181;28;20050;-80
2022/08/29 00:45:06;;;;;;;4.10;1.70;;;16.30;99.90;;;;;;4969451;28;20053;-80
2022/08/29 00:47:35;;;;;;;3.40;1.20;;;16.30;99.90;;;;;;4986141;28;20045;-80
2022/08/29 00:50:03;;;;;;;3.90;1.15;;;16.30;99.90;;;;;;4984924;28;20042;-80
2022/08/29 00:52:37;;;;;;;1.80;0.98;;;16.30;99.90;;;;;;5002862;28;20131;-82
2022/08/29 00:55:09;;;;;;;3.75;1.60;;;16.30;99.90;;;;;;5001835;28;20496;-82
2022/08/29 00:57:38;;;;;;;2.22;1.42;;;16.20;99.90;;;;;;4994677;28;20041;-82
2022/08/29 01:00:06;;;;;;;3.85;1.25;;;16.20;99.90;;;;;;5004058;28;20052;-82
2022/08/29 01:02:32;;;;;;;1.52;0.95;;;16.20;99.90;;;;;;4998955;28;20054;-82
2022/08/29 01:04:59;;;;;;;4.25;1.30;;;16.20;99.90;;;;;;4985929;28;20085;-82
2022/08/29 01:07:25;;;;;;;2.15;1.08;;;16.20;99.90;;;;;;4985058;28;20057;-83
2022/08/29 01:09:52;;;;;;;2.28;1.17;;;16.20;99.90;;;;;;5000821;28;20168;-82
2022/08/29 01:12:20;;;;;;;2.25;1.40;;;16.20;99.90;;;;;;4987881;28;20095;-84
2022/08/29 01:14:53;;;;;;;4.13;1.23;;;16.20;99.90;;;;;;4986170;28;20503;-83
2022/08/29 01:17:43;;;;;;;3.03;1.38;;;16.20;99.90;;;;;;4998267;28;20045;-83
2022/08/29 01:20:18;;;;;;;4.88;1.23;;;16.20;99.90;;;;;;5003332;28;20097;-83
2022/08/29 01:22:47;;;;;;;1.73;0.85;;;16.20;99.90;;;;;;5002059;28;20673;-83
2022/08/29 01:25:20;;;;;;;2.38;1.38;;;16.20;99.90;;;;;;4985983;28;20508;-83
2022/08/29 01:27:51;;;;;;;2.85;1.30;;;16.20;99.90;;;;;;5004050;28;20400;-83
2022/08/29 01:30:18;;;;;;;2.58;0.93;;;16.30;99.90;;;;;;5002864;28;20046;-82
2022/08/29 01:32:44;;;;;;;3.17;1.20;;;16.30;99.90;;;;;;4996883;28;20111;-83
2022/08/29 01:35:10;;;;;;;4.18;1.30;;;16.30;99.90;;;;;;5001649;28;20528;-83
2022/08/29 01:37:42;;;;;;;4.72;1.30;;;16.20;99.90;;;;;;4981911;28;20049;-83
2022/08/29 01:40:08;;;;;;;2.30;1.20;;;16.30;99.90;;;;;;4981805;28;20128;-83
2022/08/29 01:42:35;;;;;;;4.32;1.40;;;16.20;99.90;;;;;;4981198;28;20053;-83
2022/08/29 01:45:01;;;;;;;3.85;1.42;;;16.20;99.90;;;;;;4997537;28;20052;-83
2022/08/29 01:47:30;;;;;;;3.50;1.02;;;16.20;99.90;;;;;;4998920;28;20074;-83
2022/08/29 01:49:56;;;;;;;2.28;0.90;;;16.20;99.90;;;;;;5005891;28;20073;-83
2022/08/29 01:52:23;;;;;;;2.25;1.10;;;16.20;99.90;;;;;;5000882;28;20054;-82
2022/08/29 01:54:48;;;;;;;2.90;1.40;;;16.10;99.90;;;;;;4983306;28;20077;-83
2022/08/29 01:57:15;;;;;;;2.17;1.02;;;16.20;99.90;;;;;;5020026;28;20081;-83
2022/08/29 01:59:42;;;;;;;1.98;0.98;;;16.10;99.90;;;;;;5005854;28;20445;-83
2022/08/29 02:02:15;;;;;;;2.13;1.10;;;16.20;99.90;;;;;;4987754;28;20358;-83
2022/08/29 02:04:41;;;;;;;3.55;1.20;;;16.20;99.90;;;;;;4990024;28;20052;-83
2022/08/29 02:07:07;;;;;;;3.55;1.63;;;16.20;99.90;;;;;;5001828;28;20113;-83
2022/08/29 02:09:33;;;;;;;2.30;1.17;;;16.20;99.90;;;;;;5006270;28;20039;-83
2022/08/29 02:12:01;;;;;;;3.03;1.38;;;16.10;99.90;;;;;;5004575;28;20037;-83
2022/08/29 02:14:29;;;;;;;4.10;2.10;;;16.10;99.90;;;;;;5003652;28;20034;-83
2022/08/29 02:16:55;;;;;;;5.03;1.40;;;16.10;99.90;;;;;;5008460;28;20100;-83
2022/08/29 02:19:22;;;;;;;2.72;1.20;;;16.10;99.90;;;;;;4985205;28;20050;-83
2022/08/29 02:21:48;;;;;;;3.63;1.50;;;16.10;99.90;;;;;;4969449;28;20461;-83
2022/08/29 02:24:16;;;;;;;5.15;1.50;;;16.10;99.90;;;;;;4991344;28;20045;-83
2022/08/29 02:26:43;;;;;;;2.95;1.30;;;16.10;99.90;;;;;;4984935;28;20488;-83
2022/08/29 02:29:11;;;;;;;3.17;1.27;;;16.10;99.90;;;;;;5004403;28;20042;-83
2022/08/29 02:31:38;;;;;;;2.80;1.40;;;16.00;99.90;;;;;;5005403;28;20361;-83
2022/08/29 02:34:05;;;;;;;2.70;1.42;;;16.10;99.90;;;;;;5001225;28;20067;-83
2022/08/29 02:36:31;;;;;;;3.20;1.25;;;16.10;99.90;;;;;;4980562;28;20412;-83
2022/08/29 02:38:57;;;;;;;3.08;1.35;;;16.10;99.90;;;;;;4988850;28;20068;-83
2022/08/29 02:41:23;;;;;;;2.47;1.17;;;16.10;99.90;;;;;;4989024;28;20038;-83
2022/08/29 02:43:48;;;;;;;3.50;1.45;;;16.10;99.90;;;;;;4982258;28;20038;-83
2022/08/29 02:46:17;;;;;;;2.72;1.23;;;16.10;99.90;;;;;;5002336;28;20045;-83
2022/08/29 02:48:44;;;;;;;2.45;1.30;;;16.10;99.90;;;;;;5004666;28;20042;-80
2022/08/29 02:51:17;;;;;;;2.97;1.40;;;16.10;99.90;;;;;;4988705;28;20088;-81
2022/08/29 02:53:42;;;;;;;3.15;1.52;;;16.00;99.90;;;;;;5004317;28;20070;-80
2022/08/29 02:56:08;;;;;;;4.75;1.27;;;16.00;99.90;;;;;;5003189;28;20120;-80
2022/08/29 02:58:34;;;;;;;2.75;1.42;;;16.00;99.90;;;;;;4987741;28;20066;-80
2022/08/29 03:01:00;;;;;;;6.45;1.27;;;16.10;99.90;;;;;;4972264;28;20038;-81
2022/08/29 03:03:26;;;;;;;3.47;1.50;;;16.00;99.90;;;;;;4989801;28;20049;-80
2022/08/29 03:05:53;;;;;;;3.55;1.38;;;16.10;99.90;;;;;;5004184;28;20038;-80
2022/08/29 03:08:19;;;;;;;2.67;1.30;;;16.10;99.90;;;;;;4998848;28;20081;-81
2022/08/29 03:10:45;;;;;;;3.83;1.23;;;16.10;99.90;;;;;;4988634;28;20046;-81
2022/08/29 03:13:11;;;;;;;3.20;1.23;;;16.10;99.90;;;;;;5000410;28;20053;-83
2022/08/29 03:15:38;;;;;;;3.15;1.58;;;16.10;99.90;;;;;;4982014;28;20042;-83
2022/08/29 03:18:04;;;;;;;4.25;1.38;;;16.10;99.90;;;;;;4983086;28;20103;-83
2022/08/29 03:20:32;;;;;;;2.63;1.50;;;16.00;99.90;;;;;;5005078;28;20096;-83
2022/08/29 03:22:58;;;;;;;3.28;1.40;;;16.10;99.90;;;;;;5001520;28;20082;-83
2022/08/29 03:25:24;;;;;;;2.35;1.23;;;16.00;99.90;;;;;;4999461;28;20507;-83
2022/08/29 03:27:51;;;;;;;4.38;1.52;;;16.10;99.90;;;;;;4998732;28;20385;-82
2022/08/29 03:30:18;;;;;;;4.93;1.58;;;16.00;99.90;;;;;;4999213;28;20076;-83
2022/08/29 03:32:44;;;;;;;2.15;1.30;;;16.00;99.90;;;;;;5003467;28;20030;-83
2022/08/29 03:35:12;;;;;;;2.75;1.20;;;16.00;99.90;;;;;;4987551;28;20035;-82
2022/08/29 03:37:38;;;;;;;3.70;1.52;;;16.00;99.90;;;;;;5001515;28;20065;-81
2022/08/29 03:40:07;;;;;;;4.20;1.33;;;15.90;99.90;;;;;;4999131;28;20046;-80
2022/08/29 03:42:32;;;;;;;2.92;1.35;;;15.90;99.90;;;;;;5000040;28;20088;-80
2022/08/29 03:45:02;;;;;;;4.38;1.35;;;15.90;99.90;;;;;;4971714;28;20488;-80
2022/08/29 03:47:28;;;;;;;2.63;1.10;;;15.80;99.90;;;;;;4982943;28;20121;-80
2022/08/29 03:49:54;;;;;;;1.33;0.82;;;15.80;99.90;;;;;;5003866;28;20121;-80
2022/08/29 03:52:19;;;;;;;1.75;0.82;;;15.90;99.90;;;;;;4987271;28;20030;-80
2022/08/29 03:54:45;;;;;;;4.35;1.13;;;15.90;99.90;;;;;;5003514;28;20492;-83
2022/08/29 03:57:11;;;;;;;2.35;1.17;;;16.00;99.90;;;;;;4986920;28;20077;-83
2022/08/29 03:59:36;;;;;;;3.95;1.30;;;16.00;99.90;;;;;;4966144;28;20078;-83
2022/08/29 04:02:02;;;;;;;5.05;1.48;;;16.00;99.90;;;;;;4986211;28;20045;-83
2022/08/29 04:07:13;;;;;;;4.93;1.33;;;16.00;99.90;;;;;;4980962;28;20038;-83
2022/08/29 04:09:40;;;;;;;3.90;0.90;;;16.00;99.90;;;;;;5005628;28;20034;-83
2022/08/29 04:12:10;;;;;;;2.95;1.20;;;16.00;99.90;;;;;;4970055;28;20404;-83
2022/08/29 04:14:39;;;;;;;2.90;1.15;;;16.00;99.90;;;;;;4996435;28;20050;-83
2022/08/29 04:17:06;;;;;;;1.85;1.05;;;16.00;99.90;;;;;;4983250;28;20121;-83
2022/08/29 04:19:34;;;;;;;1.25;0.77;;;16.00;99.90;;;;;;4986804;28;20439;-83
2022/08/29 04:22:00;;;;;;;3.95;1.23;;;16.00;99.90;;;;;;5002864;28;20073;-83
2022/08/29 04:24:26;;;;;;;2.30;1.02;;;16.00;99.90;;;;;;5003178;28;20081;-83
2022/08/29 04:26:51;;;;;;;3.00;1.17;;;16.00;99.90;;;;;;4986054;28;20480;-83
2022/08/29 04:29:17;;;;;;;1.95;0.98;;;16.00;99.90;;;;;;4950212;28;20196;-83
2022/08/29 04:31:43;;;;;;;2.15;1.15;;;16.00;99.90;;;;;;4983033;28;20480;-83
2022/08/29 04:34:11;;;;;;;2.78;1.08;;;16.00;99.90;;;;;;4989857;28;20074;-83
2022/08/29 04:36:40;;;;;;;2.38;0.80;;;16.00;99.90;;;;;;5004851;28;20061;-82
2022/08/29 04:39:07;;;;;;;3.42;1.33;;;16.00;99.90;;;;;;4976356;28;20052;-83
2022/08/29 04:41:34;;;;;;;3.22;0.98;;;16.00;99.90;;;;;;4999103;28;20377;-83
2022/08/29 04:44:01;;;;;;;2.20;1.05;;;16.00;99.90;;;;;;4998400;28;20106;-81
2022/08/29 04:46:26;;;;;;;2.03;1.00;;;16.00;99.90;;;;;;4986225;28;20129;-80
2022/08/29 04:48:53;;;;;;;1.88;0.85;;;16.10;99.90;;;;;;4988110;28;20125;-80
2022/08/29 04:51:20;;;;;;;3.03;1.60;;;16.10;99.90;;;;;;4988842;23;20112;-82
2022/08/29 04:53:46;;;;;;;1.70;1.00;;;16.10;99.90;;;;;;4986842;28;20046;-82
2022/08/29 04:56:12;;;;;;;3.47;1.25;;;16.10;99.90;;;;;;4970095;28;20042;-82
2022/08/29 04:58:40;;;;;;;2.60;1.27;;;16.10;99.90;;;;;;4983092;28;20054;-82
2022/08/29 05:01:07;;;;;;;1.88;0.90;;;16.10;99.90;;;;;;4970556;28;20038;-83
2022/08/29 05:03:33;;;;;;;1.45;0.85;;;16.20;99.90;;;;;;5008136;28;20053;-83
2022/08/29 05:06:06;;;;;;;3.08;1.10;;;16.20;99.90;;;;;;4966533;28;20078;-83
2022/08/29 05:08:33;;;;;;;2.25;1.00;;;16.20;99.90;;;;;;4966422;28;20137;-83
2022/08/29 05:10:59;;;;;;;1.17;0.85;;;16.20;99.90;;;;;;4982071;28;20052;-82
2022/08/29 05:13:26;;;;;;;2.05;1.10;;;16.10;99.90;;;;;;4975407;28;20556;-83
2022/08/29 05:15:52;;;;;;;5.72;1.17;;;16.10;99.90;;;;;;5008789;28;20054;-83
2022/08/29 05:18:18;;;;;;;3.38;1.23;;;16.10;99.90;;;;;;4982907;28;20061;-83
2022/08/29 05:20:47;;;;;;;3.65;1.05;;;16.10;99.90;;;;;;4962936;28;20045;-83
2022/08/29 05:23:15;;;;;;;3.25;1.10;;;16.10;99.90;;;;;;5005741;28;20039;-83
2022/08/29 05:25:42;;;;;;;3.00;1.02;;;16.10;99.90;;;;;;4982566;28;20050;-83
2022/08/29 05:28:10;;;;;;;2.20;1.27;;;16.20;99.90;;;;;;4978622;28;20041;-83
2022/08/29 05:30:37;;;;;;;3.42;1.17;;;16.20;99.90;;;;;;5002031;28;20050;-83
2022/08/29 05:33:04;;;;;;;3.92;1.17;;;16.20;99.90;;;;;;4973066;28;20045;-82
2022/08/29 05:35:31;;;;;;;2.92;1.10;;;16.30;99.90;;;;;;4982381;28;20042;-80
2022/08/29 05:37:56;;;;;;;1.90;0.95;;;16.30;99.90;;;;;;4966888;28;20043;-80
2022/08/29 05:40:22;;;;;;;1.90;0.98;;;16.40;99.90;;;;;;4984688;28;20564;-80
2022/08/29 05:42:48;;;;;;;1.98;1.08;;;16.50;99.90;;;;;;4966227;28;20039;-80
2022/08/29 05:45:14;;;;;;;2.25;1.10;;;16.50;99.90;;;;;;4986268;28;20057;-80
2022/08/29 05:47:40;;;;;;;2.22;0.98;;;16.60;99.90;;;;;;4975434;28;20109;-81
2022/08/29 05:50:06;;;;;;;2.17;0.95;;;16.70;99.90;;;;;;4992236;28;20074;-81
2022/08/29 05:52:32;;;;;;;2.30;0.70;;;16.80;99.90;;;;;;4959358;28;20120;-82
2022/08/29 05:54:59;;;;;;;4.55;1.10;;;16.80;99.90;;;;;;4963057;28;20145;-82
2022/08/29 05:57:26;;;;;;;2.70;1.05;;;16.90;99.90;;;;;;4966035;28;20122;-82
2022/08/29 05:59:53;;;;;;;3.67;1.27;;;17.00;99.90;;;;;;4974368;28;20069;-82
2022/08/29 06:02:21;;;;;;;3.42;0.80;;;17.10;99.90;;;;;;4982279;28;20082;-82
2022/08/29 06:04:47;;;;;;;1.83;1.00;;;17.20;99.90;;;;;;4985290;28;20042;-82
2022/08/29 06:07:13;;;;;;;4.05;1.17;;;17.30;99.90;;;;;;4987900;28;20055;-82
2022/08/29 06:09:40;;;;;;;4.10;1.13;;;17.40;99.90;;;;;;4985808;28;20389;-82
2022/08/29 06:12:09;;;;;;;2.15;0.82;;;17.50;99.90;;;;;;4966435;28;20043;-82
2022/08/29 06:14:35;;;;;;;2.25;0.80;;;17.60;99.90;;;;;;4966893;28;20066;-82
2022/08/29 06:17:02;;;;;;;2.53;1.45;;;17.70;99.90;;;;;;4999506;28;20061;-82
2022/08/29 06:19:33;;;;;;;2.80;0.95;;;17.80;99.90;;;;;;4986973;28;20046;-82
2022/08/29 06:22:02;;;;;;;1.92;0.95;;;17.90;99.90;;;;;;4978642;28;20524;-80
2022/08/29 06:24:32;;;;;;;2.78;1.00;;;18.00;99.90;;;;;;4967373;28;20046;-80
2022/08/29 06:26:59;;;;;;;2.75;1.00;;;18.00;99.90;;;;;;5003459;28;20126;-80
2022/08/29 06:29:25;;;;;;;2.00;1.00;;;18.10;99.90;;;;;;4985466;28;20041;-80
2022/08/29 06:31:52;;;;;;;2.05;1.05;;;18.20;99.90;;;;;;4972621;28;20043;-80
2022/08/29 06:34:18;;;;;;;5.13;1.00;;;18.40;99.90;;;;;;4971321;28;20039;-81
2022/08/29 06:36:44;;;;;;;1.63;1.00;;;18.50;99.90;;;;;;4957916;28;20053;-81
2022/08/29 06:39:10;;;;;;;2.63;1.15;;;18.60;99.90;;;;;;4974769;28;20432;-80
2022/08/29 06:41:37;;;;;;;2.28;0.88;;;18.60;99.90;;;;;;4982047;28;20042;-81
2022/08/29 06:44:03;;;;;;;1.98;0.73;;;18.60;99.90;;;;;;4964608;28;20138;-81
2022/08/29 06:46:32;;;;;;;4.57;1.35;;;18.60;99.90;;;;;;4986036;28;20185;-80
2022/08/29 06:49:00;;;;;;;2.42;0.77;;;18.40;99.90;;;;;;4970076;28;20042;-80
2022/08/29 06:51:31;;;;;;;3.13;0.93;;;18.40;99.90;;;;;;4972741;28;20394;-80
2022/08/29 06:53:58;;;;;;;1.92;1.00;;;18.50;99.90;;;;;;4975706;28;20078;-80
2022/08/29 06:56:25;;;;;;;2.38;1.05;;;18.60;99.90;;;;;;4983990;28;20404;-80
2022/08/29 06:58:51;;;;;;;2.92;1.17;;;18.70;99.90;;;;;;4976208;28;20039;-81
2022/08/29 07:01:18;;;;;;;2.63;1.17;;;18.80;99.90;;;;;;4987370;28;20417;-80
2022/08/29 07:03:45;;;;;;;4.50;1.33;;;18.90;99.90;;;;;;4988113;28;20189;-81
2022/08/29 07:06:12;;;;;;;3.92;1.13;;;19.00;99.90;;;;;;4979543;28;20050;-81
2022/08/29 07:08:39;;;;;;;2.75;1.10;;;19.10;99.90;;;;;;4973498;28;20042;-81
2022/08/29 07:11:05;;;;;;;1.60;0.82;;;19.30;99.90;;;;;;4991200;28;20031;-81
2022/08/29 07:13:33;;;;;;;1.83;1.00;;;19.50;99.90;;;;;;4984820;28;20170;-82
2022/08/29 07:15:59;;;;;;;1.60;1.02;;;19.70;99.90;;;;;;4977425;28;20480;-82
2022/08/29 07:18:24;;;;;;;3.00;0.93;;;19.90;99.90;;;;;;4980790;28;20045;-82
2022/08/29 07:20:51;;;;;;;2.40;0.90;;;19.90;99.90;;;;;;4972879;28;20476;-82
2022/08/29 07:23:17;;;;;;;1.35;0.80;;;19.90;99.90;;;;;;4975225;28;20074;-83
2022/08/29 07:25:42;;;;;;;2.70;1.05;;;19.90;99.90;;;;;;4961305;28;20437;-82
2022/08/29 07:28:08;;;;;;;2.42;1.15;;;19.80;99.90;;;;;;4988416;28;20130;-82
2022/08/29 07:30:34;;;;;;;5.13;1.08;;;19.90;99.90;;;;;;4987388;28;20074;-82
2022/08/29 07:33:00;;;;;;;2.53;0.75;;;20.10;99.90;;;;;;4978753;28;20038;-82
2022/08/29 07:35:25;;;;;;;2.15;0.98;;;20.30;99.90;;;;;;4960054;28;20041;-82
2022/08/29 07:37:55;;;;;;;2.47;1.00;;;20.50;99.90;;;;;;4984601;28;20042;-83
2022/08/29 07:40:21;;;;;;;2.80;0.80;;;20.80;99.90;;;;;;4993965;28;20038;-82
2022/08/29 07:42:47;;;;;;;4.80;1.42;;;20.90;99.90;;;;;;4978873;28;20095;-82
2022/08/29 07:45:13;;;;;;;3.45;1.30;;;21.10;99.90;;;;;;4961778;28;20405;-82
2022/08/29 07:47:40;;;;;;;2.38;1.10;;;21.30;99.90;;;;;;4982824;28;20445;-82
2022/08/29 07:50:08;;;;;;;1.80;1.00;;;21.40;99.90;;;;;;4984573;28;20040;-82
2022/08/29 07:52:35;;;;;;;3.55;1.38;;;21.90;99.90;;;;;;4981313;28;20062;-83
2022/08/29 07:55:02;;;;;;;2.40;1.02;;;22.80;99.90;;;;;;4994805;28;20128;-83
2022/08/29 07:57:28;;;;;;;2.28;0.75;;;23.60;99.90;;;;;;4968295;28;20468;-83
2022/08/29 07:59:53;;;;;;;2.22;1.00;;;24.20;99.90;;;;;;4968641;28;20121;-82
2022/08/29 08:02:19;;;;;;;2.13;1.02;;;24.80;99.30;;;;;;4973314;28;20038;-83
2022/08/29 08:04:45;;;;;;;1.55;0.90;;;25.80;98.20;;;;;;4974890;28;20055;-83
2022/08/29 08:07:11;;;;;;;2.30;1.15;;;27.10;95.60;;;;;;4991161;28;20057;-83
2022/08/29 08:09:37;;;;;;;4.93;1.17;;;27.70;92.90;;;;;;4983711;28;20051;-83
2022/08/29 08:12:04;;;;;;;3.08;1.30;;;28.40;92.70;;;;;;4986133;28;20041;-83
2022/08/29 08:14:31;;;;;;;1.48;0.65;;;28.60;92.20;;;;;;5003857;28;20042;-83
2022/08/29 08:16:56;;;;;;;4.38;0.82;;;28.60;91.20;;;;;;5008149;28;20047;-83
2022/08/29 08:19:22;;;;;;;2.17;0.77;;;29.00;91.10;;;;;;4991329;28;20511;-83
2022/08/29 08:21:48;;;;;;;2.08;0.90;;;29.60;90.60;;;;;;4966966;28;20042;-83
2022/08/29 08:24:13;;;;;;;2.55;0.80;;;29.80;88.90;;;;;;4975323;28;20075;-83
2022/08/29 08:26:39;;;;;;;1.42;0.70;;;29.20;87.70;;;;;;4983717;28;20458;-83
2022/08/29 08:29:05;;;;;;;2.42;1.17;;;28.60;90.30;;;;;;4983636;28;20035;-83
2022/08/29 08:31:31;;;;;;;2.38;1.10;;;29.60;88.70;;;;;;4972913;28;20050;-83
2022/08/29 08:33:56;;;;;;;1.38;0.95;;;30.60;85.20;;;;;;4986318;28;20389;-83
2022/08/29 08:36:29;;;;;;;2.42;0.93;;;31.30;85.50;;;;;;4962012;28;20121;-83
2022/08/29 08:38:56;;;;;;;2.05;0.70;;;32.20;84.70;;;;;;5007754;28;20397;-83
2022/08/29 08:41:56;;;;;;;2.58;1.20;;;32.70;81.90;;;;;;4987029;28;20061;-83
2022/08/29 08:44:22;;;;;;;1.95;0.85;;;32.80;78.60;;;;;;4983212;28;20038;-83
2022/08/29 08:46:57;;;;;;;2.45;0.90;;;33.10;79.10;;;;;;4982786;28;20053;-83
2022/08/29 08:49:25;;;;;;;2.03;1.00;;;33.30;80.10;;;;;;5006267;28;20535;-83
2022/08/29 08:52:12;;;;;;;3.47;0.95;;;34.00;79.30;;;;;;4992035;28;20092;-83
2022/08/29 08:55:00;;;;;;;3.92;1.10;;;34.00;76.00;;;;;;5007009;28;20038;-81
2022/08/29 08:57:35;;;;;;;0.93;0.73;;;33.60;76.10;;;;;;4982774;28;20122;-81
2022/08/29 09:00:05;;;;;;;;;;;33.10;76.60;;;;;;4985736;28;20105;-80
2022/08/29 09:02:41;;;;;;;2.22;0.90;;;32.40;77.70;;;;;;4967507;28;20355;-82
2022/08/29 09:05:26;;;;;;;1.08;0.60;;;31.80;77.90;;;;;;4991037;28;20049;-82
2022/08/29 09:08:04;;;;;;;3.35;1.45;;;30.50;80.40;;;;;;4998145;28;20038;-82
2022/08/29 09:10:47;;;;;;;2.22;1.15;;;28.20;83.10;;;;;;4990990;28;20046;-81
2022/08/29 09:13:28;;;;;;;1.50;0.88;;;27.70;84.60;;;;;;4988886;28;20057;-81
2022/08/29 09:15:58;;;;;;;2.67;1.15;;;27.10;88.60;;;;;;5009671;28;20066;-81
2022/08/29 09:18:40;;;;;;;2.92;0.90;;;27.40;88.30;;;;;;4984656;28;20074;-81
2022/08/29 09:21:20;;;;;;;2.03;1.10;;;28.20;85.00;;;;;;4968995;28;20043;-81
2022/08/29 09:23:53;;;;;;;3.65;1.25;;;28.30;84.70;;;;;;4978555;28;20064;-81
2022/08/29 09:26:21;;;;;;;3.10;1.33;;;28.00;84.60;;;;;;5007976;28;20133;-81
2022/08/29 09:28:48;;;;;;;3.00;1.08;;;28.40;87.10;;;;;;4986389;28;20050;-81
2022/08/29 09:31:22;;;;;;;2.80;1.60;;;29.00;83.90;;;;;;4989695;28;20445;-81
2022/08/29 09:33:54;;;;;;;5.95;1.15;;;28.90;84.90;;;;;;4981932;28;20042;-81
2022/08/29 09:36:41;;;;;;;4.45;1.20;;;28.70;85.00;;;;;;4991289;28;20038;-81
2022/08/29 09:39:12;;;;;;;;;;;28.20;85.60;;;;;;4982247;28;20046;-80
2022/08/29 09:41:38;;;;;;;2.80;1.13;;;27.60;86.60;;;;;;5008793;28;19991;-80
2022/08/29 09:44:05;;;;;;;2.20;0.95;;;27.60;87.50;;;;;;4991343;28;20508;-83
2022/08/29 09:46:31;;;;;;;2.22;0.80;;;27.60;87.60;;;;;;4993147;28;20070;-81
2022/08/29 09:49:02;;;;;;;1.48;0.90;;;27.60;87.40;;;;;;4982523;28;20581;-81
2022/08/29 09:51:31;;;;;;;2.03;1.10;;;27.30;87.30;;;;;;4982187;28;20108;-81
2022/08/29 09:54:23;;;;;;;2.42;1.08;;;27.30;88.40;;;;;;4965843;28;20047;-81
2022/08/29 09:57:17;;;;;;;2.42;0.90;;;27.10;86.90;;;;;;4986929;28;20468;-81
2022/08/29 09:59:46;;;;;;;3.88;1.10;;;26.90;88.00;;;;;;4986526;28;20373;-81
2022/08/29 10:02:26;;;;;;;2.15;0.95;;;26.90;87.50;;;;;;4966256;28;20050;-81
2022/08/29 10:04:55;;;;;;;1.10;0.80;;;26.90;88.40;;;;;;4966081;28;20057;-81
2022/08/29 10:07:25;;;;;;;2.40;1.00;;;26.70;89.90;;;;;;4982114;28;20043;-81
2022/08/29 10:10:14;;;;;;;1.75;0.80;;;26.60;89.90;;;;;;4982253;28;20501;-80
2022/08/29 10:13:14;;;;;;;2.38;1.08;;;26.30;91.00;;;;;;4981962;28;20050;-83
2022/08/29 10:16:09;;;;;;;2.25;1.10;;;26.50;90.80;;;;;;5009626;28;20031;-81
2022/08/29 10:18:49;;;;;;;2.28;0.80;;;27.00;91.10;;;;;;4992334;28;20153;-81
2022/08/29 10:21:36;;;;;;;4.35;1.52;;;27.30;90.10;;;;;;4985490;28;20105;-81
2022/08/29 10:24:20;;;;;;;5.28;2.15;;;26.80;90.60;;;;;;4985603;28;20058;-83
2022/08/29 10:27:11;;;;;;;4.75;1.20;;;26.00;91.70;;;;;;4981814;28;20413;-83
2022/08/29 10:29:43;;;;;;;5.25;1.40;;;25.50;92.50;;;;;;4984920;28;20129;-83
2022/08/29 10:32:22;;;;;;;3.95;1.35;;;25.00;92.90;;;;;;4988499;28;20350;-83
2022/08/29 10:35:02;;;;;;;3.80;1.40;;;24.50;93.30;;;;;;5011296;28;20038;-81
2022/08/29 10:37:54;;;;;;;5.05;1.38;;;24.10;94.30;;;;;;4968719;28;20053;-80
2022/08/29 10:40:24;;;;;;;6.03;1.77;;;23.70;94.80;;;;;;4985721;28;20535;-80
2022/08/29 10:43:00;;;;;;;2.50;1.10;;;23.60;94.90;;;;;;4991601;28;20043;-81
2022/08/29 10:45:41;;;;;;;3.05;1.10;;;23.60;95.40;;;;;;4986404;28;20085;-83
2022/08/29 10:48:20;;;;;;;3.65;0.80;;;23.80;95.20;;;;;;4966451;28;20039;-83
2022/08/29 10:51:07;;;;;;;3.35;1.55;;;24.00;95.10;;;;;;4986377;28;20467;-81
2022/08/29 10:53:38;;;;;;;5.25;1.65;;;24.50;95.40;;;;;;4998345;28;20068;-80
2022/08/29 10:56:21;;;;;;;4.22;1.20;;;25.10;94.20;;;;;;4988536;28;20042;-80
2022/08/29 10:59:21;;;;;;;6.03;1.65;;;25.80;94.10;;;;;;4990075;28;20052;-80
2022/08/29 11:02:19;;;;;;;3.05;1.45;;;26.30;93.10;;;;;;4988349;28;20077;-80
2022/08/29 11:04:52;;;;;;;3.80;1.48;;;27.30;92.00;;;;;;4969482;28;20046;-80
2022/08/29 11:07:29;;;;;;;4.22;1.58;;;28.30;91.40;;;;;;4972550;28;20046;-80
2022/08/29 11:10:00;;;;;;;5.47;1.83;;;28.50;90.10;;;;;;4990619;28;20452;-81
2022/08/29 11:12:40;;;;;;;4.75;1.63;;;28.30;90.60;;;;;;4971906;28;20045;-81
2022/08/29 11:15:41;;;;;;;4.13;1.55;;;27.80;91.00;;;;;;4992531;28;20042;-81
2022/08/29 11:18:23;;;;;;;2.50;1.30;;;27.60;91.40;;;;;;4942157;28;20050;-81
2022/08/29 11:21:00;;;;;;;4.43;1.98;;;27.30;91.30;;;;;;4988210;28;20039;-80
2022/08/29 11:23:34;;;;;;;5.38;2.03;;;27.40;91.40;;;;;;4987841;28;20140;-81
2022/08/29 11:26:21;;;;;;;4.20;1.88;;;27.10;92.00;;;;;;4988189;28;20484;-81
2022/08/29 11:29:05;;;;;;;2.40;1.45;;;27.00;92.10;;;;;;4993518;28;20057;-80
2022/08/29 11:31:56;;;;;;;3.55;1.50;;;26.90;92.50;;;;;;5013524;28;20041;-81
2022/08/29 11:34:34;;;;;;;9.65;1.95;;;26.80;92.80;;;;;;4989159;28;20326;-81
2022/08/29 11:37:21;;;;;;;3.63;1.50;;;26.70;93.00;;;;;;4987869;28;20124;-81
2022/08/29 11:40:07;;;;;;;2.58;1.30;;;26.60;93.20;;;;;;4988752;28;20042;-81
2022/08/29 11:42:40;;;;;;;3.00;1.35;;;26.60;93.00;;;;;;4987682;28;20370;-83
2022/08/29 11:45:09;;;;;;;2.88;1.25;;;26.40;93.00;;;;;;4995455;28;20037;-83
2022/08/29 11:48:02;;;;;;;3.03;1.65;;;26.30;92.90;;;;;;4986946;28;20030;-83
2022/08/29 11:50:34;;;;;;;2.50;1.13;;;26.10;92.90;;;;;;4987578;28;20034;-83
2022/08/29 11:53:06;;;;;;;6.82;1.73;;;25.80;93.30;;;;;;4972611;28;20064;-83
2022/08/29 11:55:43;;;;;;;2.55;1.48;;;25.50;93.70;;;;;;4979756;28;20042;-83
2022/08/29 11:58:15;;;;;;;4.32;1.48;;;25.30;94.10;;;;;;4991339;28;20050;-81
2022/08/29 12:00:42;;;;;;;2.53;1.23;;;25.20;94.10;;;;;;4971345;28;20042;-81
2022/08/29 12:03:33;;;;;;;2.33;1.15;;;25.30;94.00;;;;;;4986935;28;20046;-80
2022/08/29 12:06:22;;;;;;;3.47;1.73;;;25.30;94.10;;;;;;4992227;28;20045;-80
2022/08/29 12:09:11;;;;;;;4.43;1.45;;;25.30;94.40;;;;;;4970757;28;20054;-81
2022/08/29 12:12:02;;;;;;;5.22;1.60;;;25.20;96.90;;;;;;4988448;28;20088;-81
2022/08/29 12:14:38;;;;;;;2.72;1.80;;;25.10;97.50;;;;;;4987364;28;20073;-82
2022/08/29 12:17:15;;;;;;;5.38;1.83;;;24.90;98.80;;;;;;4988016;28;20045;-82
2022/08/29 12:19:55;;;;;;;3.85;1.50;;;24.70;99.60;;;;;;4990920;28;20038;-82
2022/08/29 12:22:46;;;;;;;2.67;1.50;;;24.50;99.90;;;;;;4995975;28;20037;-82
2022/08/29 12:25:26;;;;;;;5.97;1.98;;;24.30;99.90;;;;;;4996869;28;20100;-81
2022/08/29 12:28:01;;;;;;;3.08;1.63;;;24.10;99.90;;;;;;4994068;28;20056;-81
2022/08/29 12:30:33;;;;;;;4.45;2.33;;;24.10;99.90;;;;;;4984454;28;20606;-82
2022/08/29 12:33:35;;;;;;;3.20;1.48;;;23.90;99.90;;;;;;4997033;28;20527;-83
2022/08/29 12:36:17;;;;;;;3.45;1.50;;;23.80;99.90;;;;;;4980594;28;20472;-81
2022/08/29 12:38:57;;;;;;;5.30;1.60;;;23.60;99.90;;;;;;4981302;28;20488;-82
2022/08/29 12:41:51;;;;;;;4.35;1.73;;;23.70;99.90;;;;;;4996500;28;20045;-82
2022/08/29 12:44:24;;;;;;;5.22;1.60;;;23.70;99.90;;;;;;4990935;28;20092;-82
2022/08/29 12:46:54;;;;;;;5.95;1.60;;;23.70;99.90;;;;;;4996494;28;20045;-80
2022/08/29 12:49:24;;;;;;;5.45;2.50;;;23.70;99.90;;;;;;4976744;28;20077;-80
2022/08/29 12:51:54;;;;;;;6.22;1.92;;;23.90;99.90;;;;;;4988461;28;20411;-80
2022/08/29 12:54:36;;;;;;;3.13;1.50;;;23.90;99.90;;;;;;4990688;28;20038;-80
2022/08/29 12:57:07;;;;;;;5.53;1.60;;;24.00;99.90;;;;;;4996165;28;20248;-80
2022/08/29 12:59:34;;;;;;;5.63;1.25;;;24.10;99.90;;;;;;4989184;28;20663;-80
2022/08/29 13:01:59;;;;;;;2.30;1.38;;;24.20;99.90;;;;;;4995932;28;20099;-80
2022/08/29 13:04:31;;;;;;;3.72;1.67;;;24.10;99.90;;;;;;4981387;28;20038;-80
2022/08/29 13:07:01;;;;;;;2.80;1.20;;;24.00;99.90;;;;;;4995052;28;20423;-80
2022/08/29 13:09:53;;;;;;;3.95;1.17;;;24.00;99.90;;;;;;4996473;28;20464;-80